sensor_id;sensor_type;location;lat;lon;timestamp;temperature;humidity
25214;DHT22;13160;51.834;4.706;2024-01-27T06:23:57;3.80;99.90
25214;DHT22;13160;51.834;4.706;2024-01-27T06:26:29;3.80;99.90
25214;DHT22;13160;51.834;4.706;2024-01-27T06:29:15;3.70;99.90
25214;DHT22;13160;51.834;4.706;2024-01-27T06:31:50;3.80;99.90
25214;DHT22;13160;51.834;4.706;2024-01-27T06:34:22;3.70;99.90
25214;DHT22;13160;51.834;4.706;2024-01-27T06:37:02;3.70;99.90
25214;DHT22;13160;51.834;4.706;2024-01-27T06:39:35;3.70;99.90
25214;DHT22;13160;51.834;4.706;2024-01-27T06:42:06;3.80;99.90
25214;DHT22;13160;51.834;4.706;2024-01-27T06:44:36;3.80;99.90
25214;DHT22;13160;51.834;4.706;2024-01-27T06:47:13;3.70;99.90
25214;DHT22;13160;51.834;4.706;2024-01-27T06:49:43;3.70;99.90
25214;DHT22;13160;51.834;4.706;2024-01-27T06:52:43;3.70;99.90
25214;DHT22;13160;51.834;4.706;2024-01-27T07:14:19;3.70;99.90
25214;DHT22;13160;51.834;4.706;2024-01-27T07:17:22;3.70;99.90
25214;DHT22;13160;51.834;4.706;2024-01-27T07:20:35;3.70;99.90
25214;DHT22;13160;51.834;4.706;2024-01-27T07:23:25;3.80;99.90
25214;DHT22;13160;51.834;4.706;2024-01-27T07:28:58;3.80;99.90
25214;DHT22;13160;51.834;4.706;2024-01-27T07:31:34;3.80;99.90
25214;DHT22;13160;51.834;4.706;2024-01-27T07:34:23;3.80;99.90
25214;DHT22;13160;51.834;4.706;2024-01-27T07:37:04;3.70;99.90
25214;DHT22;13160;51.834;4.706;2024-01-27T07:39:40;3.80;99.90
25214;DHT22;13160;51.834;4.706;2024-01-27T07:42:09;3.80;99.90
25214;DHT22;13160;51.834;4.706;2024-01-27T07:44:45;3.80;99.90
25214;DHT22;13160;51.834;4.706;2024-01-27T07:47:20;3.80;99.90
25214;DHT22;13160;51.834;4.706;2024-01-27T07:49:49;3.80;99.90
25214;DHT22;13160;51.834;4.706;2024-01-27T07:52:19;3.80;99.90
25214;DHT22;13160;51.834;4.706;2024-01-27T07:54:48;3.80;99.90
25214;DHT22;13160;51.834;4.706;2024-01-27T07:57:35;3.80;99.90
25214;DHT22;13160;51.834;4.706;2024-01-27T08:00:10;3.80;99.90
25214;DHT22;13160;51.834;4.706;2024-01-27T08:02:43;3.80;99.90
25214;DHT22;13160;51.834;4.706;2024-01-27T08:05:14;3.80;99.90
25214;DHT22;13160;51.834;4.706;2024-01-27T08:07:48;3.80;99.90
25214;DHT22;13160;51.834;4.706;2024-01-27T08:10:18;3.80;99.90
25214;DHT22;13160;51.834;4.706;2024-01-27T08:12:48;3.80;99.90
25214;DHT22;13160;51.834;4.706;2024-01-27T08:15:18;3.80;99.90
25214;DHT22;13160;51.834;4.706;2024-01-27T08:17:49;3.80;99.90
25214;DHT22;13160;51.834;4.706;2024-01-27T08:20:19;3.80;99.90
25214;DHT22;13160;51.834;4.706;2024-01-27T08:22:50;3.80;99.90
25214;DHT22;13160;51.834;4.706;2024-01-27T08:29:32;3.80;99.90
25214;DHT22;13160;51.834;4.706;2024-01-27T08:33:33;3.80;99.90
25214;DHT22;13160;51.834;4.706;2024-01-27T08:37:13;3.80;99.90
25214;DHT22;13160;51.834;4.706;2024-01-27T08:40:58;3.80;99.90
25214;DHT22;13160;51.834;4.706;2024-01-27T08:43:58;3.80;99.90
25214;DHT22;13160;51.834;4.706;2024-01-27T08:46:28;4.00;99.90
25214;DHT22;13160;51.834;4.706;2024-01-27T08:49:07;3.90;99.90
25214;DHT22;13160;51.834;4.706;2024-01-27T08:51:38;3.90;99.90
25214;DHT22;13160;51.834;4.706;2024-01-27T08:54:08;3.90;99.90
25214;DHT22;13160;51.834;4.706;2024-01-27T08:56:40;4.00;99.90
25214;DHT22;13160;51.834;4.706;2024-01-27T08:59:09;4.00;99.90
25214;DHT22;13160;51.834;4.706;2024-01-27T09:01:38;4.00;99.90
25214;DHT22;13160;51.834;4.706;2024-01-27T09:04:09;4.10;99.90
25214;DHT22;13160;51.834;4.706;2024-01-27T09:06:38;4.10;99.90
25214;DHT22;13160;51.834;4.706;2024-01-27T09:09:10;4.20;99.90
25214;DHT22;13160;51.834;4.706;2024-01-27T09:11:49;4.20;99.90
25214;DHT22;13160;51.834;4.706;2024-01-27T09:30:48;4.50;99.90
25214;DHT22;13160;51.834;4.706;2024-01-27T09:33:18;4.50;99.90
25214;DHT22;13160;51.834;4.706;2024-01-27T09:42:46;4.70;99.90
25214;DHT22;13160;51.834;4.706;2024-01-27T09:57:22;5.00;99.90
25214;DHT22;13160;51.834;4.706;2024-01-27T09:59:52;5.10;99.90
25214;DHT22;13160;51.834;4.706;2024-01-27T10:02:24;5.10;99.90
25214;DHT22;13160;51.834;4.706;2024-01-27T10:04:58;5.20;99.90
25214;DHT22;13160;51.834;4.706;2024-01-27T10:07:45;5.30;99.90
25214;DHT22;13160;51.834;4.706;2024-01-27T10:10:16;5.30;99.90
25214;DHT22;13160;51.834;4.706;2024-01-27T10:12:47;5.40;99.90
25214;DHT22;13160;51.834;4.706;2024-01-27T10:15:20;5.40;99.90
25214;DHT22;13160;51.834;4.706;2024-01-27T10:17:50;5.50;99.90
25214;DHT22;13160;51.834;4.706;2024-01-27T10:20:23;5.60;99.90
25214;DHT22;13160;51.834;4.706;2024-01-27T10:23:10;5.60;99.90
25214;DHT22;13160;51.834;4.706;2024-01-27T10:25:45;5.70;99.90
25214;DHT22;13160;51.834;4.706;2024-01-27T10:28:55;5.70;99.90
25214;DHT22;13160;51.834;4.706;2024-01-27T10:31:41;5.80;99.90
25214;DHT22;13160;51.834;4.706;2024-01-27T10:34:25;5.90;99.90
25214;DHT22;13160;51.834;4.706;2024-01-27T10:36:54;6.00;99.90
25214;DHT22;13160;51.834;4.706;2024-01-27T10:39:23;6.00;99.90
25214;DHT22;13160;51.834;4.706;2024-01-27T10:44:34;6.10;99.90
25214;DHT22;13160;51.834;4.706;2024-01-27T10:50:15;6.30;99.90
25214;DHT22;13160;51.834;4.706;2024-01-27T11:43:25;7.40;99.90
25214;DHT22;13160;51.834;4.706;2024-01-27T13:30:55;8.50;99.90
25214;DHT22;13160;51.834;4.706;2024-01-27T13:33:25;8.50;99.90
25214;DHT22;13160;51.834;4.706;2024-01-27T13:36:05;8.50;99.90
25214;DHT22;13160;51.834;4.706;2024-01-27T13:39:14;8.50;99.90
25214;DHT22;13160;51.834;4.706;2024-01-27T13:43:17;8.60;99.90
25214;DHT22;13160;51.834;4.706;2024-01-27T14:11:50;8.50;99.90
25214;DHT22;13160;51.834;4.706;2024-01-27T14:14:51;8.50;99.90
25214;DHT22;13160;51.834;4.706;2024-01-27T16:02:37;7.80;99.90
25214;DHT22;13160;51.834;4.706;2024-01-27T16:15:17;7.60;99.90
25214;DHT22;13160;51.834;4.706;2024-01-27T16:20:57;7.50;99.90
25214;DHT22;13160;51.834;4.706;2024-01-27T16:26:37;7.50;99.90
25214;DHT22;13160;51.834;4.706;2024-01-27T17:24:47;6.70;99.90
25214;DHT22;13160;51.834;4.706;2024-01-27T17:27:44;6.60;99.90
25214;DHT22;13160;51.834;4.706;2024-01-27T17:30:23;6.60;99.90
25214;DHT22;13160;51.834;4.706;2024-01-27T17:33:14;6.50;99.90
25214;DHT22;13160;51.834;4.706;2024-01-27T17:36:03;6.50;99.90
25214;DHT22;13160;51.834;4.706;2024-01-27T17:39:10;6.50;99.90
25214;DHT22;13160;51.834;4.706;2024-01-27T17:42:21;6.50;99.90
